Aeroporto :
LOGIN :

Iscrizione | Disclaimer

   EN    FR    IT 

 










Sommario :    VFR   VFR Marginale   IFR   IFR Intensivo   IFR Molto Intensivo
Visibilità : 
Base nubi : 
>= 8 km
>= 3000ft
5 / 8 km
1000 / 3000 ft
1500m / 5 km
500 / 1000 ft
800 / 1500m
200 / 500 ft
< 800m
< 200 ft
Simboli :   Temporali  Nebbia  Neve Forte  Precipitazioni Forti  Vento > 20 kt
SIGMETs :   Varie  Temporali  Ghiacco  Turbolenza  Onda orograficha  Ceneri Vulcaniche






- Altitudine del aeroporto : 53 ft
- Codice IATA : LBC


EDHL - Lübeck

ULTIMO METAR :
  • 201220Z VRB02KT 4000 -RA BKN004 05/04 Q1018

METARs OBSOLETI :
  • 201150Z VRB02KT 3000 -RA BR OVC004 05/04 Q1019
  • 201120Z VRB02KT 3000 -RA BR BKN004 BKN020 05/04 Q1019
  • 201050Z VRB01KT 3000 -RA BR OVC003 04/04 Q1019
  • 201020Z 34002KT 3000 -RA BR OVC003 04/04 Q1019
  • 200950Z VRB02KT 3000 -RA OVC003 04/M02 Q1019

TAF TAF EDHL
Valido dal 20 a 12 ore il 20 a 21 ore UTC


201100Z 2012/2021 VRB02KT 5000 BR BKN006
TEMPO 2012/2021 11005KT 2500 -RA BKN004
PROB40
TEMPO 2012/2021 SCT006 BKN020



MetMap, La meteo Aeronautica in un colpo d'occhio ! - Copyright ORBIFLY Dicembre 2007 - Disclaimer

ORBIFLY MET'MAP TEAM :

Programmazione e sviluppo : Alexandra Zaïnal
Concezione e sviluppo : Baudouin d'Aumeries
Co-Programmazione e sviluppo : Marc-Olivier Méhu
Supporto tecnico e logistico : Manuel Goepfert
Aiuto per la traduzione : Arnaldo La Scala

Contatto : metmap@orbifly.com




FONTI E CREDITI :

   NOAA